Aviation Digital Data Service (ADDS)

Output produced by METARs form (1728 UTC 16 June 2019)
found at http://www.aviationweather.gov/metar/data/
 
KYIP 161139Z 1612/1712 07006KT 6SM -SHRA BR OVC008 
     TEMPO 1614/1618 4SM -RA OVC004 
     FM170200 04005KT 6SM BR OVC015 
     FM170500 03003KT P6SM OVC028
       
KYKM 161720Z 1618/1718 36006KT P6SM FEW250 
     FM162000 VRB05KT P6SM FEW250 
     FM170200 33011G16KT P6SM FEW250 
     FM170900 32007KT P6SM SKC
       
KYNG 161126Z 1612/1712 19006KT 6SM -SHRA BR OVC006 
     TEMPO 1612/1614 2SM BR OVC004 
     FM161600 27005KT 4SM -SHRA SCT006 OVC012 
     FM162000 VRB02KT P6SM SCT015 BKN025